Time;durP1;ratioP1;P1;durP2;ratioP2;P2;SDS_P1;SDS_P2;PMS_P1;PMS_P2;Temp;Humidity;BMP_temperature;BMP_pressure;BME280_temperature;BME280_humidity;BME280_pressure;Samples;Min_cycle;Max_cycle;Signal;HPM_P1;HPM_P2
2022/10/07 00:01:48;;;;;;;;;;;20.20;1.00;;;;;;5034985;28;19952;-54
2022/10/07 00:04:15;;;;;;;;;;;20.20;1.00;;;;;;5035455;28;19956;-50
2022/10/07 00:06:41;;;;;;;;;;;20.20;1.00;;;;;;5035541;28;20375;-56
2022/10/07 00:09:08;;;;;;;;;;;20.20;1.00;;;;;;5035400;28;20292;-51
2022/10/07 00:11:35;;;;;;;;;;;20.20;1.00;;;;;;5035119;28;19921;-56
2022/10/07 00:14:03;;;;;;;;;;;20.20;1.00;;;;;;5035476;28;19921;-50
2022/10/07 00:16:31;;;;;;;;;;;20.20;1.00;;;;;;5035414;28;19920;-59
2022/10/07 00:19:00;;;;;;;;;;;20.20;1.00;;;;;;5035391;28;19921;-53
2022/10/07 00:21:28;;;;;;;;;;;20.20;1.00;;;;;;5035049;28;19983;-52
2022/10/07 00:23:55;;;;;;;;;;;20.20;1.00;;;;;;5034938;28;19948;-54
2022/10/07 00:26:23;;;;;;;;;;;20.10;1.00;;;;;;5035028;28;19932;-55
2022/10/07 00:28:50;;;;;;;;;;;20.20;1.00;;;;;;5034917;28;19920;-53
2022/10/07 00:31:18;;;;;;;;;;;20.10;1.00;;;;;;5035332;28;19928;-54
2022/10/07 00:33:46;;;;;;;;;;;20.20;1.00;;;;;;5034529;28;19925;-54
2022/10/07 00:36:15;;;;;;;;;;;20.10;1.00;;;;;;5035643;28;19920;-58
2022/10/07 00:38:41;;;;;;;;;;;20.10;1.00;;;;;;5034831;28;19925;-55
2022/10/07 00:41:14;;;;;;;;;;;20.10;1.00;;;;;;5033588;28;19928;-53
2022/10/07 00:43:40;;;;;;;;;;;20.10;1.00;;;;;;5033705;28;20382;-56
2022/10/07 00:46:28;;;;;;;;;;;20.10;1.00;;;;;;5033271;28;19932;-58
2022/10/07 00:48:56;;;;;;;;;;;20.10;1.00;;;;;;5035021;28;19948;-53
2022/10/07 00:51:24;;;;;;;;;;;20.10;1.00;;;;;;5034638;28;19920;-54
2022/10/07 00:53:52;;;;;;;;;;;20.10;1.00;;;;;;5034041;28;19928;-51
2022/10/07 00:56:19;;;;;;;;;;;20.10;1.00;;;;;;5034594;28;20362;-53
2022/10/07 00:58:47;;;;;;;;;;;20.10;1.00;;;;;;5034603;28;19921;-53
2022/10/07 01:01:14;;;;;;;;;;;20.10;1.00;;;;;;5032985;28;20271;-56
2022/10/07 01:03:41;;;;;;;;;;;20.10;1.00;;;;;;5033990;28;20275;-54
2022/10/07 01:06:09;;;;;;;;;;;20.00;1.00;;;;;;5034152;28;20474;-56
2022/10/07 01:08:37;;;;;;;;;;;20.00;1.00;;;;;;5034653;28;19921;-53
2022/10/07 01:11:12;;;;;;;;;;;20.00;1.00;;;;;;5034393;28;19927;-52
2022/10/07 01:14:09;;;;;;;;;;;20.00;1.00;;;;;;5033254;28;20023;-52
2022/10/07 01:16:49;;;;;;;;;;;20.00;1.00;;;;;;4998228;28;19928;-56
2022/10/07 01:19:35;;;;;;;;;;;20.00;1.00;;;;;;5034085;28;19921;-53
2022/10/07 01:22:11;;;;;;;;;;;20.00;1.00;;;;;;5032646;28;19983;-55
2022/10/07 01:24:37;;;;;;;;;;;20.00;1.00;;;;;;5034314;28;19927;-49
2022/10/07 01:27:33;;;;;;;;;;;20.00;1.00;;;;;;5034144;28;19925;-55
2022/10/07 01:30:05;;;;;;;;;;;20.00;1.00;;;;;;5025703;28;19921;-53
2022/10/07 01:32:31;;;;;;;;;;;20.00;1.00;;;;;;5032259;28;19928;-53
2022/10/07 01:35:01;;;;;;;;;;;20.00;1.00;;;;;;5034188;28;19944;-56
2022/10/07 01:37:33;;;;;;;;;;;20.00;1.00;;;;;;5033525;28;20370;-56
2022/10/07 01:40:04;;;;;;;;;;;20.00;1.00;;;;;;5032508;28;19956;-54
2022/10/07 01:42:32;;;;;;;;;;;20.00;1.00;;;;;;5033623;28;19921;-50
2022/10/07 01:44:59;;;;;;;;;;;20.00;1.00;;;;;;5032914;28;19921;-53
2022/10/07 01:47:27;;;;;;;;;;;20.00;1.00;;;;;;5032265;28;20298;-56
2022/10/07 01:49:54;;;;;;;;;;;20.00;1.00;;;;;;5033821;28;20426;-52
2022/10/07 01:52:27;;;;;;;;;;;20.00;1.00;;;;;;5033421;28;19925;-57
2022/10/07 01:55:11;;;;;;;;;;;20.00;1.00;;;;;;5032321;28;19928;-52
2022/10/07 01:58:00;;;;;;;;;;;20.00;1.00;;;;;;5034159;28;19921;-54
2022/10/07 02:00:28;;;;;;;;;;;20.00;1.00;;;;;;5032617;28;20024;-55
2022/10/07 02:03:18;;;;;;;;;;;19.90;1.00;;;;;;5032620;28;19928;-55
2022/10/07 02:05:51;;;;;;;;;;;20.00;1.00;;;;;;5024349;28;19929;-50
2022/10/07 02:08:18;;;;;;;;;;;19.90;1.00;;;;;;5033755;28;19921;-54
2022/10/07 02:11:00;;;;;;;;;;;19.90;1.00;;;;;;5032193;28;19925;-52
2022/10/07 02:13:50;;;;;;;;;;;20.00;1.00;;;;;;5032059;28;19928;-49
2022/10/07 02:16:18;;;;;;;;;;;20.00;1.00;;;;;;5032756;28;19952;-54
2022/10/07 02:18:47;;;;;;;;;;;19.90;1.00;;;;;;5032141;28;19933;-59
2022/10/07 02:21:15;;;;;;;;;;;19.90;1.00;;;;;;5033310;28;19921;-54
2022/10/07 02:23:42;;;;;;;;;;;19.90;1.00;;;;;;5031677;28;19928;-55
2022/10/07 02:26:12;;;;;;;;;;;19.90;1.00;;;;;;5032064;28;19928;-56
2022/10/07 02:28:41;;;;;;;;;;;19.90;1.00;;;;;;5032173;28;19928;-53
2022/10/07 02:31:13;;;;;;;;;;;19.90;1.00;;;;;;5032125;28;19928;-55
2022/10/07 02:33:41;;;;;;;;;;;19.90;1.00;;;;;;5033004;28;19975;-53
2022/10/07 02:36:21;;;;;;;;;;;19.90;1.00;;;;;;5033793;28;19928;-57
2022/10/07 02:38:48;;;;;;;;;;;19.90;1.00;;;;;;5033153;28;19921;-57
2022/10/07 02:41:53;;;;;;;;;;;19.90;1.00;;;;;;5033851;28;19921;-53
2022/10/07 02:44:27;;;;;;;;;;;19.90;1.00;;;;;;4975837;28;19926;-56
2022/10/07 02:47:02;;;;;;;;;;;19.90;1.00;;;;;;4991462;28;19953;-57
2022/10/07 02:49:31;;;;;;;;;;;19.80;1.00;;;;;;5025445;28;19929;-54
2022/10/07 02:52:00;;;;;;;;;;;19.80;1.00;;;;;;5036046;28;19921;-54
2022/10/07 02:54:40;;;;;;;;;;;19.90;1.00;;;;;;5035713;28;19921;-56
2022/10/07 02:57:07;;;;;;;;;;;19.80;1.00;;;;;;5035515;28;19921;-51
2022/10/07 02:59:36;;;;;;;;;;;19.80;1.00;;;;;;5035945;28;19943;-53
2022/10/07 03:02:04;;;;;;;;;;;19.80;1.00;;;;;;5035643;28;19921;-55
2022/10/07 03:04:31;;;;;;;;;;;19.80;1.00;;;;;;5035264;28;20023;-54
2022/10/07 03:06:58;;;;;;;;;;;19.80;1.00;;;;;;5035354;28;19952;-49
2022/10/07 03:09:24;;;;;;;;;;;19.80;1.00;;;;;;5036388;28;19927;-51
2022/10/07 03:11:51;;;;;;;;;;;19.80;1.00;;;;;;5035378;28;20279;-54
2022/10/07 03:14:18;;;;;;;;;;;19.80;1.00;;;;;;5035690;28;19928;-54
2022/10/07 03:16:45;;;;;;;;;;;19.80;1.00;;;;;;5035192;28;19925;-49
2022/10/07 03:19:11;;;;;;;;;;;19.80;1.00;;;;;;5036668;28;19921;-53
2022/10/07 03:21:53;;;;;;;;;;;19.70;1.00;;;;;;5034709;28;19980;-51
2022/10/07 03:24:20;;;;;;;;;;;19.80;1.00;;;;;;5035004;28;19931;-53
2022/10/07 03:26:48;;;;;;;;;;;19.80;1.00;;;;;;5034920;28;19921;-54
2022/10/07 03:29:16;;;;;;;;;;;19.80;1.00;;;;;;5036695;28;19928;-55
2022/10/07 03:31:43;;;;;;;;;;;19.70;1.00;;;;;;5035928;28;19963;-52
2022/10/07 03:34:10;;;;;;;;;;;19.80;1.00;;;;;;5034588;28;19925;-53
2022/10/07 03:36:40;;;;;;;;;;;19.70;1.00;;;;;;5034844;28;20354;-52
2022/10/07 03:39:07;;;;;;;;;;;19.80;1.00;;;;;;5035208;28;19921;-57
2022/10/07 03:41:35;;;;;;;;;;;19.80;1.00;;;;;;5034440;28;19921;-50
2022/10/07 03:44:04;;;;;;;;;;;19.80;1.00;;;;;;5035190;28;19994;-52
2022/10/07 03:46:31;;;;;;;;;;;19.80;1.00;;;;;;5034415;28;20024;-52
2022/10/07 03:48:59;;;;;;;;;;;19.80;1.00;;;;;;5034311;28;20367;-55
2022/10/07 03:51:27;;;;;;;;;;;19.80;1.00;;;;;;5034874;28;19921;-50
2022/10/07 03:53:56;;;;;;;;;;;19.80;1.00;;;;;;5034054;28;19921;-55
2022/10/07 03:56:25;;;;;;;;;;;19.70;1.00;;;;;;5034377;28;19963;-58
2022/10/07 03:58:52;;;;;;;;;;;19.70;1.00;;;;;;5034429;28;19949;-53
2022/10/07 04:01:19;;;;;;;;;;;19.70;1.00;;;;;;5035294;28;19921;-51
2022/10/07 04:03:49;;;;;;;;;;;19.70;1.00;;;;;;5035271;28;19921;-51
2022/10/07 04:06:16;;;;;;;;;;;19.70;1.00;;;;;;5034074;28;19975;-50
2022/10/07 04:08:44;;;;;;;;;;;19.70;1.00;;;;;;5034784;28;19928;-53
2022/10/07 04:11:11;;;;;;;;;;;19.70;1.00;;;;;;5034048;28;19920;-52
2022/10/07 04:13:41;;;;;;;;;;;19.70;1.00;;;;;;5033876;28;19932;-55
2022/10/07 04:16:08;;;;;;;;;;;19.70;1.00;;;;;;5033931;28;19921;-52
2022/10/07 04:18:36;;;;;;;;;;;19.70;1.00;;;;;;5034047;28;19920;-54
2022/10/07 04:21:03;;;;;;;;;;;19.70;1.00;;;;;;5034500;28;19921;-49
2022/10/07 04:23:32;;;;;;;;;;;19.70;1.00;;;;;;5033374;28;19949;-56
2022/10/07 04:25:59;;;;;;;;;;;19.60;1.00;;;;;;5033999;28;19921;-52
2022/10/07 04:28:26;;;;;;;;;;;19.70;1.00;;;;;;5034196;28;19921;-50
2022/10/07 04:31:02;;;;;;;;;;;19.70;1.00;;;;;;5033903;28;19960;-57
2022/10/07 04:33:33;;;;;;;;;;;19.70;1.00;;;;;;5033826;28;19943;-56
2022/10/07 04:36:05;;;;;;;;;;;19.70;1.00;;;;;;5032897;28;19964;-55
2022/10/07 04:38:34;;;;;;;;;;;19.60;1.00;;;;;;5033412;28;19921;-48
2022/10/07 04:41:03;;;;;;;;;;;19.60;1.00;;;;;;5033471;28;19967;-56
2022/10/07 04:43:32;;;;;;;;;;;19.60;1.00;;;;;;5033154;28;19925;-55
2022/10/07 04:46:07;;;;;;;;;;;19.60;1.00;;;;;;5033885;28;20019;-56
2022/10/07 04:48:42;;;;;;;;;;;19.60;1.00;;;;;;5033604;28;20710;-55
2022/10/07 04:51:09;;;;;;;;;;;19.70;1.00;;;;;;5033550;28;20012;-53
2022/10/07 04:53:38;;;;;;;;;;;19.60;1.00;;;;;;5032989;28;19971;-55
2022/10/07 04:56:07;;;;;;;;;;;19.60;1.00;;;;;;5033575;28;20385;-52
2022/10/07 04:58:34;;;;;;;;;;;19.60;1.00;;;;;;5033304;28;19921;-54
2022/10/07 05:01:05;;;;;;;;;;;19.70;1.00;;;;;;5033783;28;19943;-53
2022/10/07 05:03:34;;;;;;;;;;;19.60;1.00;;;;;;5032965;28;19921;-51
2022/10/07 05:06:02;;;;;;;;;;;19.60;1.00;;;;;;5033033;28;19932;-52
2022/10/07 05:08:33;;;;;;;;;;;19.60;1.00;;;;;;5033291;28;19920;-54
2022/10/07 05:11:01;;;;;;;;;;;19.60;1.00;;;;;;5032593;28;20398;-54
2022/10/07 05:13:33;;;;;;;;;;;19.60;1.00;;;;;;5032467;28;19952;-54
2022/10/07 05:16:02;;;;;;;;;;;19.70;1.00;;;;;;5032869;28;20016;-54
2022/10/07 05:18:30;;;;;;;;;;;19.60;1.00;;;;;;5034236;28;20386;-54
2022/10/07 05:21:05;;;;;;;;;;;19.60;1.00;;;;;;5033228;28;20298;-56
2022/10/07 05:23:35;;;;;;;;;;;19.60;1.00;;;;;;5032363;28;19928;-51
2022/10/07 05:26:06;;;;;;;;;;;19.60;1.00;;;;;;5032605;28;19956;-55
2022/10/07 05:28:36;;;;;;;;;;;19.60;1.00;;;;;;5033041;28;19921;-58
2022/10/07 05:31:06;;;;;;;;;;;19.50;1.00;;;;;;5032818;28;19921;-55
2022/10/07 05:33:33;;;;;;;;;;;19.50;1.00;;;;;;5032772;28;20011;-53
2022/10/07 05:36:01;;;;;;;;;;;19.50;1.00;;;;;;5032884;28;19959;-49
2022/10/07 05:38:28;;;;;;;;;;;19.50;1.00;;;;;;5032562;28;19920;-53
2022/10/07 05:40:57;;;;;;;;;;;19.50;1.00;;;;;;5031937;28;20015;-52
2022/10/07 05:43:26;;;;;;;;;;;19.60;1.00;;;;;;5031898;28;19971;-53
2022/10/07 05:45:59;;;;;;;;;;;19.50;1.00;;;;;;5029257;28;20405;-55
2022/10/07 05:48:29;;;;;;;;;;;19.50;1.00;;;;;;5024681;28;20480;-52
2022/10/07 05:51:03;;;;;;;;;;;19.50;1.00;;;;;;5023367;28;19927;-57
2022/10/07 05:53:30;;;;;;;;;;;19.60;1.00;;;;;;5024890;28;19921;-52
2022/10/07 05:55:58;;;;;;;;;;;19.50;1.00;;;;;;5028146;28;20290;-52
2022/10/07 05:58:26;;;;;;;;;;;19.50;1.00;;;;;;5032213;28;19921;-54
2022/10/07 06:00:55;;;;;;;;;;;19.50;1.00;;;;;;5032152;28;19921;-52
2022/10/07 06:03:28;;;;;;;;;;;19.50;1.00;;;;;;5016386;28;19921;-53
2022/10/07 06:05:58;;;;;;;;;;;19.60;1.00;;;;;;5032041;28;19925;-56
2022/10/07 06:08:25;;;;;;;;;;;19.60;1.00;;;;;;5032255;28;20007;-52
2022/10/07 06:13:49;;;;;;;;;;;19.60;1.00;;;;;;5032834;28;19927;-52
2022/10/07 06:16:16;;;;;;;;;;;19.50;1.00;;;;;;5033478;28;20019;-55
2022/10/07 06:18:43;;;;;;;;;;;19.50;1.00;;;;;;5032324;28;19921;-53
2022/10/07 06:21:11;;;;;;;;;;;19.50;1.00;;;;;;5032177;28;19928;-54
2022/10/07 06:23:38;;;;;;;;;;;19.50;1.00;;;;;;5035180;28;20271;-55
2022/10/07 06:26:07;;;;;;;;;;;19.50;1.00;;;;;;5036150;28;20286;-53
2022/10/07 06:28:38;;;;;;;;;;;19.50;1.00;;;;;;5037807;28;20343;-58
2022/10/07 06:31:07;;;;;;;;;;;19.50;1.00;;;;;;5036078;28;20393;-50
2022/10/07 06:33:35;;;;;;;;;;;19.50;1.00;;;;;;5035560;28;20382;-55
2022/10/07 06:36:02;;;;;;;;;;;19.50;1.00;;;;;;5035694;28;19931;-55
2022/10/07 06:38:30;;;;;;;;;;;19.50;1.00;;;;;;5035736;28;20267;-52
2022/10/07 06:41:02;;;;;;;;;;;19.50;1.00;;;;;;5035309;28;20430;-53
2022/10/07 06:43:32;;;;;;;;;;;19.50;1.00;;;;;;5035525;28;20441;-56
2022/10/07 06:46:12;;;;;;;;;;;19.50;1.00;;;;;;5035475;28;19921;-49
2022/10/07 06:48:40;;;;;;;;;;;19.40;1.00;;;;;;5035824;28;19925;-55
2022/10/07 06:51:07;;;;;;;;;;;19.40;1.00;;;;;;5035404;28;20370;-52
2022/10/07 06:53:34;;;;;;;;;;;19.40;1.00;;;;;;5036357;28;19925;-53
2022/10/07 06:56:03;;;;;;;;;;;19.40;1.00;;;;;;5035358;28;19953;-55
2022/10/07 06:58:32;;;;;;;;;;;19.40;1.00;;;;;;5035544;28;19929;-51
2022/10/07 07:01:01;;;;;;;;;;;19.40;1.00;;;;;;5035715;28;19921;-54
2022/10/07 07:03:29;;;;;;;;;;;19.40;1.00;;;;;;5035354;28;19921;-54
2022/10/07 07:05:58;;;;;;;;;;;19.40;1.00;;;;;;5019163;28;20393;-54
2022/10/07 07:08:31;;;;;;;;;;;19.40;1.00;;;;;;5035375;28;19971;-51
2022/10/07 07:11:05;;;;;;;;;;;19.30;1.00;;;;;;5035417;28;19921;-52
2022/10/07 07:13:33;;;;;;;;;;;19.30;1.00;;;;;;5036381;28;20553;-54
2022/10/07 07:16:01;;;;;;;;;;;19.30;1.00;;;;;;5034949;28;19921;-54
2022/10/07 07:18:32;;;;;;;;;;;19.20;1.00;;;;;;5035014;28;20096;-51
2022/10/07 07:21:06;;;;;;;;;;;19.20;1.00;;;;;;5035168;28;19924;-55
2022/10/07 07:23:34;;;;;;;;;;;19.20;1.00;;;;;;5034533;28;19928;-53
2022/10/07 07:26:01;;;;;;;;;;;19.20;1.00;;;;;;5034860;28;19921;-55
2022/10/07 07:28:30;;;;;;;;;;;19.20;1.00;;;;;;5035054;28;19932;-48
2022/10/07 07:30:57;;;;;;;;;;;19.20;1.00;;;;;;5034850;28;20020;-55
2022/10/07 07:33:24;;;;;;;;;;;19.20;1.00;;;;;;5034416;28;19951;-52
2022/10/07 07:35:50;;;;;;;;;;;19.20;1.00;;;;;;5035049;28;19921;-49
2022/10/07 07:38:19;;;;;;;;;;;19.20;1.00;;;;;;5034691;28;19971;-56
2022/10/07 07:40:52;;;;;;;;;;;19.20;1.00;;;;;;5034620;28;19983;-54
2022/10/07 07:43:19;;;;;;;;;;;19.30;1.00;;;;;;5034138;28;19928;-54
2022/10/07 07:45:46;;;;;;;;;;;19.20;1.00;;;;;;5034495;28;19927;-48
2022/10/07 07:48:14;;;;;;;;;;;19.20;1.00;;;;;;5036122;28;19979;-49
2022/10/07 07:50:41;;;;;;;;;;;19.20;1.00;;;;;;5034403;28;19921;-53
2022/10/07 07:53:08;;;;;;;;;;;19.20;1.00;;;;;;5034602;28;19921;-51
2022/10/07 07:55:34;;;;;;;;;;;19.20;1.00;;;;;;5034323;28;19921;-56
2022/10/07 07:58:01;;;;;;;;;;;19.30;1.00;;;;;;5035925;28;19921;-53
2022/10/07 08:00:28;;;;;;;;;;;19.20;1.00;;;;;;5034277;28;19921;-54
2022/10/07 08:03:01;;;;;;;;;;;19.30;1.00;;;;;;5033752;28;20019;-54
2022/10/07 08:05:29;;;;;;;;;;;19.20;1.00;;;;;;5035297;28;20375;-50
2022/10/07 08:07:57;;;;;;;;;;;19.20;1.00;;;;;;5034689;28;19921;-55
2022/10/07 08:10:25;;;;;;;;;;;19.20;1.00;;;;;;5033985;28;19956;-55
2022/10/07 08:12:55;;;;;;;;;;;19.20;1.00;;;;;;5033829;28;19966;-54
2022/10/07 08:15:22;;;;;;;;;;;19.20;1.00;;;;;;5034067;28;20442;-58
2022/10/07 08:17:49;;;;;;;;;;;19.30;1.00;;;;;;5033949;28;19952;-55
2022/10/07 08:20:16;;;;;;;;;;;19.40;1.00;;;;;;5035213;28;19928;-51
2022/10/07 08:22:44;;;;;;;;;;;19.40;1.00;;;;;;5033383;28;19921;-54
2022/10/07 08:25:12;;;;;;;;;;;19.50;1.00;;;;;;5033590;28;20004;-52
2022/10/07 08:27:38;;;;;;;;;;;19.60;1.00;;;;;;5033739;28;19930;-53
2022/10/07 08:30:07;;;;;;;;;;;19.70;1.00;;;;;;5034939;28;19921;-55
2022/10/07 08:32:34;;;;;;;;;;;19.90;1.00;;;;;;5033475;28;20398;-55
2022/10/07 08:35:00;;;;;;;;;;;19.90;1.00;;;;;;5034818;28;20337;-53
2022/10/07 08:37:27;;;;;;;;;;;20.00;1.00;;;;;;5034845;28;19936;-51
2022/10/07 08:39:54;;;;;;;;;;;20.00;1.00;;;;;;5034641;28;19948;-56
2022/10/07 08:42:26;;;;;;;;;;;20.00;1.00;;;;;;5034271;28;19925;-58
2022/10/07 08:44:54;;;;;;;;;;;20.00;1.00;;;;;;5034532;28;19939;-55
2022/10/07 08:47:38;;;;;;;;;;;20.00;1.00;;;;;;5034078;28;19963;-53
2022/10/07 08:50:08;;;;;;;;;;;20.00;1.00;;;;;;5034443;28;19921;-54
2022/10/07 08:52:35;;;;;;;;;;;20.00;1.00;;;;;;5034234;28;19928;-54
2022/10/07 08:55:03;;;;;;;;;;;20.00;1.00;;;;;;5034410;28;19921;-55
2022/10/07 08:57:39;;;;;;;;;;;20.10;1.00;;;;;;5034725;28;19943;-55
2022/10/07 09:00:06;;;;;;;;;;;20.10;1.00;;;;;;5034401;28;19925;-56
2022/10/07 09:02:50;;;;;;;;;;;20.10;1.00;;;;;;5033826;28;19925;-51
2022/10/07 09:05:16;;;;;;;;;;;20.10;1.00;;;;;;5034320;28;20362;-53
2022/10/07 09:07:55;;;;;;;;;;;20.10;1.00;;;;;;5034225;28;20390;-53
2022/10/07 09:10:21;;;;;;;;;;;20.10;1.00;;;;;;5034388;28;19921;-53
2022/10/07 09:12:48;;;;;;;;;;;20.10;1.00;;;;;;5034142;28;19927;-52
2022/10/07 09:15:34;;;;;;;;;;;20.00;1.00;;;;;;5034388;28;20032;-50
2022/10/07 09:18:08;;;;;;;;;;;20.00;1.00;;;;;;5034783;28;19928;-53
2022/10/07 09:20:41;;;;;;;;;;;20.00;1.00;;;;;;5034275;28;19928;-52
2022/10/07 09:23:11;;;;;;;;;;;20.00;1.00;;;;;;5033776;28;19928;-58
2022/10/07 09:25:40;;;;;;;;;;;20.00;1.00;;;;;;5034111;28;20011;-50
2022/10/07 09:28:15;;;;;;;;;;;20.00;1.00;;;;;;5033940;28;20058;-48
2022/10/07 09:30:42;;;;;;;;;;;20.00;1.00;;;;;;5033788;28;19921;-53
2022/10/07 09:33:13;;;;;;;;;;;20.10;1.00;;;;;;5034096;28;19920;-52
2022/10/07 09:35:40;;;;;;;;;;;20.10;1.00;;;;;;5033642;28;19921;-56
2022/10/07 09:38:07;;;;;;;;;;;20.10;1.00;;;;;;5033799;28;19927;-52
2022/10/07 09:41:13;;;;;;;;;;;20.10;1.00;;;;;;5033825;28;19921;-56
2022/10/07 09:43:27;;;;;;;;;;;20.20;1.00;;;;;;5033871;28;19921;-53
2022/10/07 09:45:55;;;;;;;;;;;20.10;1.00;;;;;;5033468;28;19925;-56
2022/10/07 09:48:24;;;;;;;;;;;20.10;1.00;;;;;;5033595;28;19951;-53
2022/10/07 09:50:51;;;;;;;;;;;20.00;1.00;;;;;;5033786;28;19925;-50
2022/10/07 09:53:25;;;;;;;;;;;20.10;1.00;;;;;;5032350;28;19990;-53
2022/10/07 09:55:53;;;;;;;;;;;20.10;1.00;;;;;;5033636;28;19936;-50
2022/10/07 09:58:26;;;;;;;;;;;20.10;1.00;;;;;;5033506;28;19920;-52
2022/10/07 10:00:57;;;;;;;;;;;20.10;1.00;;;;;;5033446;28;19925;-52
2022/10/07 10:03:31;;;;;;;;;;;20.10;1.00;;;;;;5033003;28;19925;-55
2022/10/07 10:05:59;;;;;;;;;;;20.10;1.00;;;;;;5033604;28;19928;-57
2022/10/07 10:08:29;;;;;;;;;;;20.10;1.00;;;;;;5033508;28;19951;-53
2022/10/07 10:10:57;;;;;;;;;;;20.10;1.00;;;;;;5033303;28;19975;-54
2022/10/07 10:13:44;;;;;;;;;;;20.10;1.00;;;;;;5033148;28;20341;-52
2022/10/07 10:16:23;;;;;;;;;;;20.10;1.00;;;;;;5033469;28;19921;-51
2022/10/07 10:18:54;;;;;;;;;;;20.10;1.00;;;;;;5033350;28;19921;-50
2022/10/07 10:21:21;;;;;;;;;;;20.20;1.00;;;;;;5033391;28;19921;-50
2022/10/07 10:23:49;;;;;;;;;;;20.10;1.00;;;;;;5033147;28;19968;-55
2022/10/07 10:26:24;;;;;;;;;;;20.10;1.00;;;;;;5033193;28;19974;-52
2022/10/07 10:28:58;;;;;;;;;;;20.10;1.00;;;;;;5033413;28;19928;-53
2022/10/07 10:31:43;;;;;;;;;;;20.10;1.00;;;;;;5033151;28;20015;-48
2022/10/07 10:34:28;;;;;;;;;;;20.10;1.00;;;;;;5033196;28;19921;-51
2022/10/07 10:37:01;;;;;;;;;;;20.10;1.00;;;;;;5031908;28;19921;-50
2022/10/07 10:39:46;;;;;;;;;;;20.10;1.00;;;;;;5033277;28;19921;-54
2022/10/07 10:42:17;;;;;;;;;;;20.10;1.00;;;;;;5033285;28;20015;-55
2022/10/07 10:45:06;;;;;;;;;;;20.10;1.00;;;;;;5033124;28;19925;-51
2022/10/07 10:47:42;;;;;;;;;;;20.10;1.00;;;;;;5033104;28;19921;-51
2022/10/07 10:50:12;;;;;;;;;;;20.10;1.00;;;;;;5033268;28;19921;-55
2022/10/07 10:52:53;;;;;;;;;;;20.20;1.00;;;;;;5032709;28;20367;-53
2022/10/07 10:55:20;;;;;;;;;;;20.20;1.00;;;;;;5033026;28;19925;-54
2022/10/07 10:57:53;;;;;;;;;;;20.20;1.00;;;;;;5033574;28;19924;-56
2022/10/07 11:00:31;;;;;;;;;;;20.20;1.00;;;;;;5033131;28;19921;-52
2022/10/07 11:02:59;;;;;;;;;;;20.20;1.00;;;;;;5032466;28;19928;-50
2022/10/07 11:05:36;;;;;;;;;;;20.20;1.00;;;;;;5033124;28;20373;-54
2022/10/07 11:08:22;;;;;;;;;;;20.20;1.00;;;;;;5033046;28;20378;-58
2022/10/07 11:11:07;;;;;;;;;;;20.20;1.00;;;;;;5033948;28;19921;-55
2022/10/07 11:13:55;;;;;;;;;;;20.20;1.00;;;;;;5036446;28;19932;-55
2022/10/07 11:16:25;;;;;;;;;;;20.20;1.00;;;;;;5036192;28;19927;-54
2022/10/07 11:19:01;;;;;;;;;;;20.30;1.00;;;;;;5036532;28;19921;-53
2022/10/07 11:21:30;;;;;;;;;;;20.20;1.00;;;;;;5036133;28;19921;-51
2022/10/07 11:24:14;;;;;;;;;;;20.30;1.00;;;;;;5035844;28;19971;-54
2022/10/07 11:26:42;;;;;;;;;;;20.20;1.00;;;;;;5036194;28;19921;-54
2022/10/07 11:29:17;;;;;;;;;;;20.20;1.00;;;;;;5036328;28;20485;-55
2022/10/07 11:31:48;;;;;;;;;;;20.20;1.00;;;;;;5036016;28;19924;-50
2022/10/07 11:34:16;;;;;;;;;;;20.20;1.00;;;;;;5036570;28;20373;-56
2022/10/07 11:37:02;;;;;;;;;;;20.20;1.00;;;;;;5035700;28;19921;-53
2022/10/07 11:39:29;;;;;;;;;;;20.20;1.00;;;;;;5035811;28;19921;-58
2022/10/07 11:41:55;;;;;;;;;;;20.10;1.00;;;;;;5035797;28;20445;-49
2022/10/07 11:44:27;;;;;;;;;;;20.10;1.00;;;;;;5036152;28;20417;-51
2022/10/07 11:46:56;;;;;;;;;;;20.10;1.00;;;;;;5036209;28;19925;-52
2022/10/07 11:49:30;;;;;;;;;;;20.10;1.00;;;;;;5035761;28;19924;-53
2022/10/07 11:51:57;;;;;;;;;;;20.10;1.00;;;;;;5035568;28;19925;-55
2022/10/07 11:54:26;;;;;;;;;;;20.10;1.00;;;;;;5035695;28;19931;-55
2022/10/07 11:56:55;;;;;;;;;;;20.10;1.00;;;;;;5036002;28;19928;-53
2022/10/07 11:59:39;;;;;;;;;;;20.20;1.00;;;;;;5035838;28;19991;-55
2022/10/07 12:02:44;;;;;;;;;;;20.20;1.00;;;;;;5035259;28;19921;-56
2022/10/07 12:05:31;;;;;;;;;;;20.20;1.00;;;;;;4993778;28;19944;-51
2022/10/07 12:07:59;;;;;;;;;;;20.20;1.00;;;;;;4994831;28;19988;-54
2022/10/07 12:10:32;;;;;;;;;;;20.20;1.00;;;;;;5019768;28;19928;-55
2022/10/07 12:12:59;;;;;;;;;;;20.20;1.00;;;;;;5035240;28;19931;-55
2022/10/07 12:15:40;;;;;;;;;;;20.20;1.00;;;;;;5035290;28;19967;-54
2022/10/07 12:18:11;;;;;;;;;;;20.10;1.00;;;;;;5034407;28;20011;-52
2022/10/07 12:20:56;;;;;;;;;;;20.10;1.00;;;;;;5035209;28;20030;-57
2022/10/07 12:23:27;;;;;;;;;;;20.10;1.00;;;;;;5034835;28;20263;-53
2022/10/07 12:26:32;;;;;;;;;;;20.10;1.00;;;;;;5034868;28;19921;-49
2022/10/07 12:28:58;;;;;;;;;;;20.10;1.00;;;;;;5034972;28;19928;-53
2022/10/07 12:31:31;;;;;;;;;;;20.10;1.00;;;;;;5035095;28;19925;-50
2022/10/07 12:34:18;;;;;;;;;;;20.10;1.00;;;;;;5034724;28;19975;-53
2022/10/07 12:36:45;;;;;;;;;;;20.20;1.00;;;;;;5035464;28;20351;-52
2022/10/07 12:39:12;;;;;;;;;;;20.20;1.00;;;;;;5034817;28;20406;-56
2022/10/07 12:41:45;;;;;;;;;;;20.20;1.00;;;;;;5034378;28;20017;-48
2022/10/07 12:44:26;;;;;;;;;;;20.20;1.00;;;;;;5034015;28;19921;-61
2022/10/07 12:46:55;;;;;;;;;;;20.20;1.00;;;;;;5034703;28;20020;-55
2022/10/07 12:49:36;;;;;;;;;;;20.20;1.00;;;;;;5034844;28;19921;-56
2022/10/07 12:52:05;;;;;;;;;;;20.20;1.00;;;;;;5034489;28;19941;-53
2022/10/07 12:54:42;;;;;;;;;;;20.20;1.00;;;;;;5034746;28;19921;-51
2022/10/07 12:57:16;;;;;;;;;;;20.20;1.00;;;;;;5034427;28;19921;-54
2022/10/07 12:59:58;;;;;;;;;;;20.20;1.00;;;;;;5034897;28;19943;-56
2022/10/07 13:02:25;;;;;;;;;;;20.20;1.00;;;;;;5034140;28;19921;-56
2022/10/07 13:05:10;;;;;;;;;;;20.20;1.00;;;;;;5034176;28;19921;-51
2022/10/07 13:07:55;;;;;;;;;;;20.20;1.00;;;;;;5034372;28;19921;-51
2022/10/07 13:10:43;;;;;;;;;;;20.20;1.00;;;;;;5034169;28;19928;-51
2022/10/07 13:13:10;;;;;;;;;;;20.20;1.00;;;;;;5034113;28;19920;-53
2022/10/07 13:15:46;;;;;;;;;;;20.20;1.00;;;;;;5034134;28;20429;-54
2022/10/07 13:18:31;;;;;;;;;;;20.20;1.00;;;;;;5034511;28;20337;-53
2022/10/07 13:21:01;;;;;;;;;;;20.20;1.00;;;;;;5034039;28;19920;-55
2022/10/07 13:23:29;;;;;;;;;;;20.20;1.00;;;;;;5033851;28;19920;-51
2022/10/07 13:25:57;;;;;;;;;;;20.20;1.00;;;;;;5033708;28;20390;-57
2022/10/07 13:28:25;;;;;;;;;;;20.20;1.00;;;;;;5034789;28;19921;-55
2022/10/07 13:30:52;;;;;;;;;;;20.20;1.00;;;;;;5033906;28;19927;-52
2022/10/07 13:33:21;;;;;;;;;;;20.20;1.00;;;;;;5033035;28;19921;-53
2022/10/07 13:35:49;;;;;;;;;;;20.20;1.00;;;;;;5033677;28;19943;-53
2022/10/07 13:38:34;;;;;;;;;;;20.20;1.00;;;;;;5034020;28;19921;-52
2022/10/07 13:41:13;;;;;;;;;;;20.20;1.00;;;;;;5033694;28;19983;-55
2022/10/07 13:43:41;;;;;;;;;;;20.20;1.00;;;;;;5033520;28;19929;-52
2022/10/07 13:46:08;;;;;;;;;;;20.20;1.00;;;;;;5033723;28;20379;-46
2022/10/07 13:48:37;;;;;;;;;;;20.20;1.00;;;;;;5033755;28;19927;-54
2022/10/07 13:51:15;;;;;;;;;;;20.20;1.00;;;;;;5032511;28;19932;-52
2022/10/07 13:53:41;;;;;;;;;;;20.20;1.00;;;;;;5033928;28;19928;-53
2022/10/07 13:56:17;;;;;;;;;;;20.20;1.00;;;;;;5033242;28;19921;-55
2022/10/07 13:58:44;;;;;;;;;;;20.20;1.00;;;;;;5033440;28;19928;-47
2022/10/07 14:01:11;;;;;;;;;;;20.20;1.00;;;;;;5033617;28;19921;-49
2022/10/07 14:03:57;;;;;;;;;;;20.20;1.00;;;;;;5033473;28;19936;-50
2022/10/07 14:06:41;;;;;;;;;;;20.20;1.00;;;;;;5033571;28;19921;-56
2022/10/07 14:09:15;;;;;;;;;;;20.20;1.00;;;;;;5033598;28;20374;-53
2022/10/07 14:11:42;;;;;;;;;;;20.20;1.00;;;;;;5033487;28;20310;-51
2022/10/07 14:14:19;;;;;;;;;;;20.20;1.00;;;;;;5033394;28;19921;-55
2022/10/07 14:16:48;;;;;;;;;;;20.30;1.00;;;;;;5033310;28;19928;-56
2022/10/07 14:19:18;;;;;;;;;;;20.30;1.00;;;;;;5033379;28;19921;-57
2022/10/07 14:21:46;;;;;;;;;;;20.30;1.00;;;;;;5033123;28;19920;-51
2022/10/07 14:24:17;;;;;;;;;;;20.30;1.00;;;;;;5033429;28;19974;-51
2022/10/07 14:26:44;;;;;;;;;;;20.30;1.00;;;;;;5033486;28;19925;-54
2022/10/07 14:29:26;;;;;;;;;;;20.30;1.00;;;;;;5033822;28;20239;-52
2022/10/07 14:35:21;;;;;;;;;;;20.30;1.00;;;;;;5033213;28;19925;-56
2022/10/07 14:37:48;;;;;;;;;;;20.30;1.00;;;;;;5033124;28;19928;-51
2022/10/07 14:40:21;;;;;;;;;;;20.30;1.00;;;;;;5033215;28;19936;-54
2022/10/07 14:42:50;;;;;;;;;;;20.40;1.00;;;;;;5032931;28;19968;-53
2022/10/07 14:45:17;;;;;;;;;;;20.40;1.00;;;;;;5035813;28;20317;-54
2022/10/07 14:47:44;;;;;;;;;;;20.40;1.00;;;;;;5036882;28;20023;-50
2022/10/07 14:50:12;;;;;;;;;;;20.40;1.00;;;;;;5036788;28;20282;-52
2022/10/07 14:52:45;;;;;;;;;;;20.30;1.00;;;;;;5036881;28;20299;-55
2022/10/07 14:55:14;;;;;;;;;;;20.30;1.00;;;;;;5036693;28;19928;-56
2022/10/07 14:57:41;;;;;;;;;;;20.30;1.00;;;;;;5036483;28;20375;-56
2022/10/07 15:00:12;;;;;;;;;;;20.40;1.00;;;;;;5036921;28;20379;-58
2022/10/07 15:02:39;;;;;;;;;;;20.40;1.00;;;;;;5036378;28;19995;-56